Anne I — VRPR9 — position and weather

sailwx.info

Track history (hours):
 
Tides and Currents Weather Stations Pressure Air Temp Water Temp Dewpoint Dewpoint Depression Visibility Wind Speed Wind Dir Waves Ship Positions

Anne I

Last reported at 2017-Oct-01 04:17 UTC. Time now 2017-Oct-18 11:11 UTC.
Position N 29°39' W 089°57'.
Warning: this ship's position is 17 days out of date.

Length 190 m; draft 8.4 m.

Type: Ship. MMSI: 477129900.

Date/timePositionNaut miles runAvg speedWind from/ knotsBaromVisibWave heightAir tempDewpointWater temp
2017-Oct-01 04:17N 29°39' W 089°57'310.3
2017-Oct-01 03:57N 29°37' W 089°54'257 5.0
2017-Sep-29 00:27N 29°22' W 094°48'511.7
2017-Sep-29 00:00N 29°27' W 094°51'611.4
2017-Sep-28 23:30N 29°32' W 094°54'510.9
2017-Sep-28 23:00N 29°36' W 094°57'510.5
2017-Sep-28 22:30N 29°41' W 094°59'4 8.6
2017-Sep-28 22:00N 29°44' W 095°03'3 5.9
2017-Sep-28 21:30N 29°44' W 095°07'3 6.0
2017-Sep-28 21:00N 29°45' W 095°10'1 1.7
2017-Sep-28 20:24N 29°45' W 095°11'0 0.0
2017-Sep-28 19:48N 29°45' W 095°11'0 0.0
2017-Sep-28 19:18N 29°45' W 095°11'0 0.0
2017-Sep-28 18:48N 29°45' W 095°11'0 0.0
2017-Sep-28 18:30N 29°45' W 095°11'0 0.0
2017-Sep-28 18:00N 29°45' W 095°11'0 0.0
2017-Sep-28 17:30N 29°45' W 095°11'0 0.0
2017-Sep-28 16:54N 29°45' W 095°11'0 0.0
2017-Sep-28 16:12N 29°45' W 095°11'0 0.0
2017-Sep-28 16:00N 29°45' W 095°11'0 0.0
2017-Sep-28 15:30N 29°45' W 095°11'0 0.0
2017-Sep-28 15:00N 29°45' W 095°11'0 0.0
2017-Sep-28 14:24N 29°45' W 095°11'0 0.0
2017-Sep-28 13:54N 29°45' W 095°11'0 0.0
2017-Sep-28 13:30N 29°45' W 095°11'0 0.0
2017-Sep-28 13:00N 29°45' W 095°11'0 0.0
2017-Sep-28 12:30N 29°45' W 095°11'0 0.0
2017-Sep-28 12:00N 29°45' W 095°11'0 0.0
2017-Sep-28 11:30N 29°45' W 095°11'0 0.0
2017-Sep-28 10:48N 29°45' W 095°11'0 0.0
2017-Sep-28 10:30N 29°45' W 095°11'0 0.0
2017-Sep-28 10:00N 29°45' W 095°11'0 0.0
2017-Sep-28 09:30N 29°45' W 095°11'0 0.0
2017-Sep-28 08:36N 29°45' W 095°11'0 0.0
2017-Sep-28 08:27N 29°45' W 095°11'0 0.0
2017-Sep-28 08:00N 29°45' W 095°11'0 0.0
2017-Sep-28 07:27N 29°45' W 095°11'0 0.0
2017-Sep-28 06:54N 29°45' W 095°11'0 0.0
2017-Sep-28 06:30N 29°45' W 095°11'0 0.0
2017-Sep-28 05:54N 29°45' W 095°11'0 0.0
2017-Sep-28 05:15N 29°45' W 095°11'0 0.0
2017-Sep-28 04:54N 29°45' W 095°11'0 0.0
2017-Sep-28 04:30N 29°45' W 095°11'0 0.0
2017-Sep-28 03:42N 29°45' W 095°11'0 0.0
2017-Sep-28 03:30N 29°45' W 095°11'0 0.0
2017-Sep-28 03:00N 29°45' W 095°11'0 0.0
2017-Sep-28 02:27N 29°45' W 095°11'0 0.0
2017-Sep-28 02:00N 29°45' W 095°11'0 0.0
2017-Sep-28 01:18N 29°45' W 095°11'0 0.0
2017-Sep-28 00:48N 29°45' W 095°11'0 0.0
2017-Sep-28 00:24N 29°45' W 095°11'0 0.0
2017-Sep-27 23:48N 29°45' W 095°11'0 0.0
2017-Sep-27 23:30N 29°45' W 095°11'0 0.0
2017-Sep-27 22:24N 29°45' W 095°11'0 0.0
2017-Sep-27 21:57N 29°45' W 095°11'0 0.0
2017-Sep-27 21:30N 29°45' W 095°11'0 0.0
2017-Sep-27 21:00N 29°45' W 095°11'0 0.0
2017-Sep-27 20:18N 29°45' W 095°11'0 0.0
2017-Sep-27 20:00N 29°45' W 095°11'0 0.0
2017-Sep-27 19:21N 29°45' W 095°11'0 0.0
2017-Sep-27 19:00N 29°45' W 095°11'0 0.0
2017-Sep-27 18:30N 29°45' W 095°11'0 0.0
2017-Sep-27 17:54N 29°45' W 095°11'0 0.0
2017-Sep-27 06:09N 29°45' W 095°11'0 0.0
2017-Sep-27 06:00N 29°45' W 095°11'0 0.0
2017-Sep-27 05:30N 29°45' W 095°11'0 0.0
2017-Sep-27 05:00N 29°45' W 095°11'0 0.0
2017-Sep-27 04:27N 29°45' W 095°11'0 0.0
2017-Sep-27 03:57N 29°45' W 095°11'0 0.0
2017-Sep-27 03:27N 29°45' W 095°11'0 0.0
2017-Sep-27 03:00N 29°45' W 095°11'0 0.0
2017-Sep-27 02:30N 29°45' W 095°11'0 0.0
2017-Sep-27 02:00N 29°45' W 095°11'0 0.0
2017-Sep-27 01:30N 29°45' W 095°11'0 0.0
2017-Sep-27 01:00N 29°45' W 095°11'0 0.0
2017-Sep-27 00:30N 29°45' W 095°11'0 0.0
2017-Sep-27 00:00N 29°45' W 095°11'0 0.0
2017-Sep-26 23:15N 29°45' W 095°11'0 0.0
2017-Sep-26 23:00N 29°45' W 095°11'0 0.0
2017-Sep-26 22:24N 29°45' W 095°11'0 0.0
2017-Sep-26 22:00N 29°45' W 095°11'0 0.0
2017-Sep-26 21:30N 29°45' W 095°11'0 0.0
2017-Sep-26 21:00N 29°45' W 095°11'0 0.0
2017-Sep-26 20:30N 29°45' W 095°11'0 0.0
2017-Sep-26 19:48N 29°45' W 095°11'0 0.0
2017-Sep-26 19:21N 29°45' W 095°11'0 0.0
2017-Sep-26 18:51N 29°45' W 095°11'0 0.0
2017-Sep-26 18:30N 29°45' W 095°11'0 0.0
2017-Sep-26 17:54N 29°45' W 095°11'0 0.0
2017-Sep-26 17:30N 29°45' W 095°11'0 0.0
2017-Sep-26 17:00N 29°45' W 095°11'0 0.0
2017-Sep-26 16:27N 29°45' W 095°11'0 0.0
2017-Sep-26 16:00N 29°45' W 095°11'0 0.0
2017-Sep-26 15:27N 29°45' W 095°11'0 0.0
2017-Sep-26 14:54N 29°45' W 095°11'0 0.0
2017-Sep-26 14:27N 29°45' W 095°11'0 0.0
2017-Sep-26 14:00N 29°45' W 095°11'0 0.0
2017-Sep-26 13:30N 29°45' W 095°11'0 0.0
2017-Sep-26 13:00N 29°45' W 095°11'0 0.0
2017-Sep-26 12:30N 29°45' W 095°11'0 0.0
2017-Sep-26 11:57N 29°45' W 095°11'0 0.0
2017-Sep-26 11:30N 29°45' W 095°11'0 0.0
2017-Sep-26 11:00N 29°45' W 095°11'0 0.0
2017-Sep-26 10:30N 29°45' W 095°11'0 0.0
2017-Sep-26 10:00N 29°45' W 095°11'0 0.0
2017-Sep-26 09:30N 29°45' W 095°11'0 0.0
2017-Sep-26 09:00N 29°45' W 095°11'0 0.0
2017-Sep-26 08:30N 29°45' W 095°11'0 0.0
2017-Sep-26 07:54N 29°45' W 095°11'0 0.0
2017-Sep-26 07:30N 29°45' W 095°11'0 0.0
2017-Sep-26 06:54N 29°45' W 095°11'0 0.0
2017-Sep-26 06:30N 29°45' W 095°11'0 0.0
2017-Sep-26 06:00N 29°45' W 095°11'0 0.0
2017-Sep-26 05:30N 29°45' W 095°11'0 0.0
2017-Sep-26 05:00N 29°45' W 095°11'0 0.0
2017-Sep-26 04:21N 29°45' W 095°11'0 0.0
2017-Sep-26 04:00N 29°45' W 095°11'0 0.0
2017-Sep-26 03:30N 29°45' W 095°11'0 0.0
2017-Sep-26 02:54N 29°45' W 095°11'0 0.0
2017-Sep-26 02:30N 29°45' W 095°11'0 0.0
2017-Sep-26 01:54N 29°45' W 095°11'0 0.0
2017-Sep-26 01:30N 29°45' W 095°11'0 0.0
2017-Sep-26 00:24N 29°45' W 095°11'0 0.0
2017-Sep-26 00:00N 29°45' W 095°11'0 0.0
2017-Sep-25 23:24N 29°45' W 095°11'0 0.0
2017-Sep-25 23:00N 29°45' W 095°11'0 0.0
2017-Sep-25 22:27N 29°45' W 095°11'0 0.0
2017-Sep-25 22:00N 29°45' W 095°11'0 0.0
2017-Sep-25 21:15N 29°45' W 095°11'0 0.0
2017-Sep-25 20:51N 29°45' W 095°11'0 0.0
2017-Sep-25 20:27N 29°45' W 095°11'0 0.0
2017-Sep-25 20:00N 29°45' W 095°11'0 0.0
2017-Sep-25 19:24N 29°45' W 095°11'0 0.0
2017-Sep-25 18:51N 29°45' W 095°11'0 0.0
2017-Sep-25 18:30N 29°45' W 095°11'0 0.0
2017-Sep-25 18:00N 29°45' W 095°11'0 0.0
2017-Sep-25 17:30N 29°45' W 095°11'0 0.0
2017-Sep-25 17:00N 29°45' W 095°11'0 0.0
2017-Sep-25 16:30N 29°45' W 095°11'0 0.0
2017-Sep-25 15:57N 29°45' W 095°11'0 0.0
2017-Sep-25 15:30N 29°45' W 095°11'0 0.0
2017-Sep-25 15:00N 29°45' W 095°11'0 0.0
2017-Sep-25 14:30N 29°45' W 095°11'0 0.0
2017-Sep-25 13:54N 29°45' W 095°11'0 0.0
2017-Sep-25 13:30N 29°45' W 095°11'0 0.0
2017-Sep-25 13:00N 29°45' W 095°11'0 0.0
2017-Sep-25 12:30N 29°45' W 095°11'0 0.0
2017-Sep-25 12:00N 29°45' W 095°11'0 0.0
2017-Sep-25 11:30N 29°45' W 095°11'0 0.0
2017-Sep-25 10:48N 29°45' W 095°11'0 0.0
2017-Sep-25 10:18N 29°45' W 095°11'0 0.0
2017-Sep-25 10:00N 29°45' W 095°11'0 0.0
2017-Sep-25 09:30N 29°45' W 095°11'0 0.0
2017-Sep-25 09:00N 29°45' W 095°11'0 0.0
2017-Sep-25 08:30N 29°45' W 095°11'0 0.0
2017-Sep-25 08:00N 29°45' W 095°11'0 0.0
2017-Sep-25 07:30N 29°45' W 095°11'0 0.0
2017-Sep-25 07:00N 29°45' W 095°11'0 0.0
2017-Sep-25 06:30N 29°45' W 095°11'0 0.0
2017-Sep-25 06:00N 29°45' W 095°11'0 0.0
2017-Sep-25 05:30N 29°45' W 095°11'0 0.0
2017-Sep-25 04:57N 29°45' W 095°11'0 0.0
2017-Sep-25 04:30N 29°45' W 095°11'0 0.0
2017-Sep-25 03:54N 29°45' W 095°11'0 0.0
2017-Sep-25 03:30N 29°45' W 095°11'0 0.0
2017-Sep-25 03:00N 29°45' W 095°11'0 0.0
2017-Sep-25 02:30N 29°45' W 095°11'0 0.0
2017-Sep-25 02:00N 29°45' W 095°11'0 0.0
2017-Sep-25 01:30N 29°45' W 095°11'0 0.0
2017-Sep-25 00:57N 29°45' W 095°11'0 0.0
2017-Sep-25 00:30N 29°45' W 095°11'0 0.0
2017-Sep-25 00:00N 29°45' W 095°11'0 0.0
2017-Sep-24 23:24N 29°45' W 095°11'0 0.0
2017-Sep-24 23:00N 29°45' W 095°11'0 0.0
2017-Sep-24 22:30N 29°45' W 095°11'0 0.0
2017-Sep-24 22:00N 29°45' W 095°11'0 0.0
2017-Sep-24 21:21N 29°45' W 095°11'0 0.0
2017-Sep-24 21:00N 29°45' W 095°11'0 0.0
2017-Sep-24 20:30N 29°45' W 095°11'0 0.0
2017-Sep-24 19:54N 29°45' W 095°11'0 0.0
2017-Sep-24 19:30N 29°45' W 095°11'0 0.0
2017-Sep-24 19:00N 29°45' W 095°11'0 0.0
2017-Sep-24 18:30N 29°45' W 095°11'0 0.0
2017-Sep-24 17:57N 29°45' W 095°11'0 0.0
2017-Sep-24 17:30N 29°45' W 095°11'0 0.0
2017-Sep-24 16:57N 29°45' W 095°11'0 0.0
2017-Sep-24 16:27N 29°45' W 095°11'0 0.0
2017-Sep-24 15:54N 29°45' W 095°11'0 0.0
2017-Sep-24 15:30N 29°45' W 095°11'0 0.0
2017-Sep-24 15:00N 29°45' W 095°11'0 0.0
2017-Sep-24 14:27N 29°45' W 095°11'0 0.0
2017-Sep-24 13:54N 29°45' W 095°11'0 0.0
2017-Sep-24 13:30N 29°45' W 095°11'0 0.0
2017-Sep-24 13:00N 29°45' W 095°11'0 0.0
2017-Sep-24 12:30N 29°45' W 095°11'0 0.0
2017-Sep-24 12:00N 29°45' W 095°11'0 0.0
2017-Sep-24 11:30N 29°45' W 095°11'0 0.0
2017-Sep-24 10:57N 29°45' W 095°11'0 0.0
2017-Sep-24 10:30N 29°45' W 095°11'0 0.0
2017-Sep-24 09:57N 29°45' W 095°11'0 0.0
2017-Sep-24 09:30N 29°45' W 095°11'0 0.0
2017-Sep-24 09:00N 29°45' W 095°11'0 0.0
2017-Sep-24 08:30N 29°45' W 095°11'0 0.0
2017-Sep-24 08:00N 29°45' W 095°11'0 0.0
2017-Sep-24 07:27N 29°45' W 095°11'0 0.0
2017-Sep-24 07:00N 29°45' W 095°11'0 0.0
2017-Sep-24 06:30N 29°45' W 095°11'0 0.0
2017-Sep-24 06:00N 29°45' W 095°11'0 0.0
2017-Sep-24 05:30N 29°45' W 095°11'0 0.0
2017-Sep-24 04:48N 29°45' W 095°11'0 0.0
2017-Sep-24 04:30N 29°45' W 095°11'0 0.0
2017-Sep-24 04:00N 29°45' W 095°11'0 0.0
2017-Sep-24 03:27N 29°45' W 095°11'0 0.0
2017-Sep-24 03:00N 29°45' W 095°11'0 0.0
2017-Sep-24 02:30N 29°45' W 095°11'0 0.0
2017-Sep-24 02:00N 29°45' W 095°11'0 0.0
2017-Sep-24 01:27N 29°45' W 095°11'0 0.0
2017-Sep-24 01:00N 29°45' W 095°11'0 0.0
2017-Sep-24 00:27N 29°45' W 095°11'0 0.0
2017-Sep-23 23:57N 29°45' W 095°11'0 0.0
2017-Sep-23 23:30N 29°45' W 095°11'0 0.0
2017-Sep-23 23:00N 29°45' W 095°11'0 0.0
2017-Sep-23 22:27N 29°45' W 095°11'0 0.0
2017-Sep-23 22:00N 29°45' W 095°11'0 0.0
2017-Sep-23 21:30N 29°45' W 095°11'0 0.0
2017-Sep-23 20:57N 29°45' W 095°11'0 0.0
2017-Sep-23 20:27N 29°45' W 095°11'0 0.0
2017-Sep-23 20:00N 29°45' W 095°11'0 0.0
2017-Sep-22 01:54N 29°45' W 095°11'0 0.0
2017-Sep-22 01:30N 29°45' W 095°11'0 0.0
2017-Sep-22 01:00N 29°45' W 095°11'0 0.0
2017-Sep-22 00:24N 29°45' W 095°11'0 0.0
2017-Sep-22 00:00N 29°45' W 095°11'0 0.0
2017-Sep-21 23:27N 29°45' W 095°11'0 0.0
2017-Sep-21 23:00N 29°45' W 095°11'0 0.0
2017-Sep-21 22:30N 29°45' W 095°11'0 0.0
2017-Sep-21 21:48N 29°45' W 095°11'0 0.0
2017-Sep-21 21:12N 29°45' W 095°11'0 0.0
2017-Sep-21 21:00N 29°45' W 095°11'0 0.0
2017-Sep-21 20:30N 29°45' W 095°11'0 0.0
2017-Sep-21 20:00N 29°45' W 095°11'0 0.0
2017-Sep-21 19:30N 29°45' W 095°11'0 0.0
2017-Sep-21 18:51N 29°45' W 095°11'0 0.0
2017-Sep-21 18:24N 29°45' W 095°11'0 0.0
2017-Sep-21 17:42N 29°45' W 095°11'0 0.0
2017-Sep-21 17:27N 29°45' W 095°11'0 0.0
2017-Sep-21 16:57N 29°45' W 095°11'0 0.0
2017-Sep-21 16:30N 29°45' W 095°11'0 0.0
2017-Sep-21 15:21N 29°45' W 095°11'0 0.0
2017-Sep-21 15:00N 29°45' W 095°11'0 0.0
2017-Sep-21 14:06N 29°45' W 095°11'0 0.0
2017-Sep-21 13:57N 29°45' W 095°11'0 0.0
2017-Sep-21 13:30N 29°45' W 095°11'0 0.0
2017-Sep-21 12:57N 29°45' W 095°11'0 0.0
2017-Sep-21 11:42N 29°45' W 095°11'0 0.0
2017-Sep-21 11:27N 29°45' W 095°11'0 0.0
2017-Sep-21 10:00N 29°45' W 095°11'0 0.0
2017-Sep-21 09:30N 29°45' W 095°11'0 0.0
2017-Sep-21 08:24N 29°45' W 095°11'0 0.0
2017-Sep-21 08:00N 29°45' W 095°11'0 0.0
2017-Sep-21 07:30N 29°45' W 095°11'0 0.0
2017-Sep-21 06:42N 29°45' W 095°11'0 0.0
2017-Sep-21 06:18N 29°45' W 095°11'0 0.0
2017-Sep-21 06:00N 29°45' W 095°11'0 0.0
2017-Sep-21 05:30N 29°45' W 095°11'0 0.0
2017-Sep-21 04:57N 29°45' W 095°11'0 0.0
2017-Sep-21 04:27N 29°45' W 095°11'  
Track history (hours):
 
Tides and Currents Weather Stations Pressure Air Temp Water Temp Dewpoint Dewpoint Depression Visibility Wind Speed Wind Dir Waves Ship Positions

Anne I

Last reported at 2017-Oct-01 04:17 UTC. Time now 2017-Oct-18 11:11 UTC.
Position N 29°39' W 089°57'.
Warning: this ship's position is 17 days out of date.

Length 190 m; draft 8.4 m.

Type: Ship. MMSI: 477129900.

Date/timePositionNaut miles runAvg speedWind from/ knotsBaromVisibWave heightAir tempDewpointWater temp
2017-Oct-01 04:17N 29°39' W 089°57'310.3
2017-Oct-01 03:57N 29°37' W 089°54'257 5.0
2017-Sep-29 00:27N 29°22' W 094°48'511.7
2017-Sep-29 00:00N 29°27' W 094°51'611.4
2017-Sep-28 23:30N 29°32' W 094°54'510.9
2017-Sep-28 23:00N 29°36' W 094°57'510.5
2017-Sep-28 22:30N 29°41' W 094°59'4 8.6
2017-Sep-28 22:00N 29°44' W 095°03'3 5.9
2017-Sep-28 21:30N 29°44' W 095°07'3 6.0
2017-Sep-28 21:00N 29°45' W 095°10'1 1.7
2017-Sep-28 20:24N 29°45' W 095°11'0 0.0
2017-Sep-28 19:48N 29°45' W 095°11'0 0.0
2017-Sep-28 19:18N 29°45' W 095°11'0 0.0
2017-Sep-28 18:48N 29°45' W 095°11'0 0.0
2017-Sep-28 18:30N 29°45' W 095°11'0 0.0
2017-Sep-28 18:00N 29°45' W 095°11'0 0.0
2017-Sep-28 17:30N 29°45' W 095°11'0 0.0
2017-Sep-28 16:54N 29°45' W 095°11'0 0.0
2017-Sep-28 16:12N 29°45' W 095°11'0 0.0
2017-Sep-28 16:00N 29°45' W 095°11'0 0.0
2017-Sep-28 15:30N 29°45' W 095°11'0 0.0
2017-Sep-28 15:00N 29°45' W 095°11'0 0.0
2017-Sep-28 14:24N 29°45' W 095°11'0 0.0
2017-Sep-28 13:54N 29°45' W 095°11'0 0.0
2017-Sep-28 13:30N 29°45' W 095°11'0 0.0
2017-Sep-28 13:00N 29°45' W 095°11'0 0.0
2017-Sep-28 12:30N 29°45' W 095°11'0 0.0
2017-Sep-28 12:00N 29°45' W 095°11'0 0.0
2017-Sep-28 11:30N 29°45' W 095°11'0 0.0
2017-Sep-28 10:48N 29°45' W 095°11'0 0.0
2017-Sep-28 10:30N 29°45' W 095°11'0 0.0
2017-Sep-28 10:00N 29°45' W 095°11'0 0.0
2017-Sep-28 09:30N 29°45' W 095°11'0 0.0
2017-Sep-28 08:36N 29°45' W 095°11'0 0.0
2017-Sep-28 08:27N 29°45' W 095°11'0 0.0
2017-Sep-28 08:00N 29°45' W 095°11'0 0.0
2017-Sep-28 07:27N 29°45' W 095°11'0 0.0
2017-Sep-28 06:54N 29°45' W 095°11'0 0.0
2017-Sep-28 06:30N 29°45' W 095°11'0 0.0
2017-Sep-28 05:54N 29°45' W 095°11'0 0.0
2017-Sep-28 05:15N 29°45' W 095°11'0 0.0
2017-Sep-28 04:54N 29°45' W 095°11'0 0.0
2017-Sep-28 04:30N 29°45' W 095°11'0 0.0
2017-Sep-28 03:42N 29°45' W 095°11'0 0.0
2017-Sep-28 03:30N 29°45' W 095°11'0 0.0
2017-Sep-28 03:00N 29°45' W 095°11'0 0.0
2017-Sep-28 02:27N 29°45' W 095°11'0 0.0
2017-Sep-28 02:00N 29°45' W 095°11'0 0.0
2017-Sep-28 01:18N 29°45' W 095°11'0 0.0
2017-Sep-28 00:48N 29°45' W 095°11'0 0.0
2017-Sep-28 00:24N 29°45' W 095°11'0 0.0
2017-Sep-27 23:48N 29°45' W 095°11'0 0.0
2017-Sep-27 23:30N 29°45' W 095°11'0 0.0
2017-Sep-27 22:24N 29°45' W 095°11'0 0.0
2017-Sep-27 21:57N 29°45' W 095°11'0 0.0
2017-Sep-27 21:30N 29°45' W 095°11'0 0.0
2017-Sep-27 21:00N 29°45' W 095°11'0 0.0
2017-Sep-27 20:18N 29°45' W 095°11'0 0.0
2017-Sep-27 20:00N 29°45' W 095°11'0 0.0
2017-Sep-27 19:21N 29°45' W 095°11'0 0.0
2017-Sep-27 19:00N 29°45' W 095°11'0 0.0
2017-Sep-27 18:30N 29°45' W 095°11'0 0.0
2017-Sep-27 17:54N 29°45' W 095°11'0 0.0
2017-Sep-27 06:09N 29°45' W 095°11'0 0.0
2017-Sep-27 06:00N 29°45' W 095°11'0 0.0
2017-Sep-27 05:30N 29°45' W 095°11'0 0.0
2017-Sep-27 05:00N 29°45' W 095°11'0 0.0
2017-Sep-27 04:27N 29°45' W 095°11'0 0.0
2017-Sep-27 03:57N 29°45' W 095°11'0 0.0
2017-Sep-27 03:27N 29°45' W 095°11'0 0.0
2017-Sep-27 03:00N 29°45' W 095°11'0 0.0
2017-Sep-27 02:30N 29°45' W 095°11'0 0.0
2017-Sep-27 02:00N 29°45' W 095°11'0 0.0
2017-Sep-27 01:30N 29°45' W 095°11'0 0.0
2017-Sep-27 01:00N 29°45' W 095°11'0 0.0
2017-Sep-27 00:30N 29°45' W 095°11'0 0.0
2017-Sep-27 00:00N 29°45' W 095°11'0 0.0
2017-Sep-26 23:15N 29°45' W 095°11'0 0.0
2017-Sep-26 23:00N 29°45' W 095°11'0 0.0
2017-Sep-26 22:24N 29°45' W 095°11'0 0.0
2017-Sep-26 22:00N 29°45' W 095°11'0 0.0
2017-Sep-26 21:30N 29°45' W 095°11'0 0.0
2017-Sep-26 21:00N 29°45' W 095°11'0 0.0
2017-Sep-26 20:30N 29°45' W 095°11'0 0.0
2017-Sep-26 19:48N 29°45' W 095°11'0 0.0
2017-Sep-26 19:21N 29°45' W 095°11'0 0.0
2017-Sep-26 18:51N 29°45' W 095°11'0 0.0
2017-Sep-26 18:30N 29°45' W 095°11'0 0.0
2017-Sep-26 17:54N 29°45' W 095°11'0 0.0
2017-Sep-26 17:30N 29°45' W 095°11'0 0.0
2017-Sep-26 17:00N 29°45' W 095°11'0 0.0
2017-Sep-26 16:27N 29°45' W 095°11'0 0.0
2017-Sep-26 16:00N 29°45' W 095°11'0 0.0
2017-Sep-26 15:27N 29°45' W 095°11'0 0.0
2017-Sep-26 14:54N 29°45' W 095°11'0 0.0
2017-Sep-26 14:27N 29°45' W 095°11'0 0.0
2017-Sep-26 14:00N 29°45' W 095°11'0 0.0
2017-Sep-26 13:30N 29°45' W 095°11'0 0.0
2017-Sep-26 13:00N 29°45' W 095°11'0 0.0
2017-Sep-26 12:30N 29°45' W 095°11'0 0.0
2017-Sep-26 11:57N 29°45' W 095°11'0 0.0
2017-Sep-26 11:30N 29°45' W 095°11'0 0.0
2017-Sep-26 11:00N 29°45' W 095°11'0 0.0
2017-Sep-26 10:30N 29°45' W 095°11'0 0.0
2017-Sep-26 10:00N 29°45' W 095°11'0 0.0
2017-Sep-26 09:30N 29°45' W 095°11'0 0.0
2017-Sep-26 09:00N 29°45' W 095°11'0 0.0
2017-Sep-26 08:30N 29°45' W 095°11'0 0.0
2017-Sep-26 07:54N 29°45' W 095°11'0 0.0
2017-Sep-26 07:30N 29°45' W 095°11'0 0.0
2017-Sep-26 06:54N 29°45' W 095°11'0 0.0
2017-Sep-26 06:30N 29°45' W 095°11'0 0.0
2017-Sep-26 06:00N 29°45' W 095°11'0 0.0
2017-Sep-26 05:30N 29°45' W 095°11'0 0.0
2017-Sep-26 05:00N 29°45' W 095°11'0 0.0
2017-Sep-26 04:21N 29°45' W 095°11'0 0.0
2017-Sep-26 04:00N 29°45' W 095°11'0 0.0
2017-Sep-26 03:30N 29°45' W 095°11'0 0.0
2017-Sep-26 02:54N 29°45' W 095°11'0 0.0
2017-Sep-26 02:30N 29°45' W 095°11'0 0.0
2017-Sep-26 01:54N 29°45' W 095°11'0 0.0
2017-Sep-26 01:30N 29°45' W 095°11'0 0.0
2017-Sep-26 00:24N 29°45' W 095°11'0 0.0
2017-Sep-26 00:00N 29°45' W 095°11'0 0.0
2017-Sep-25 23:24N 29°45' W 095°11'0 0.0
2017-Sep-25 23:00N 29°45' W 095°11'0 0.0
2017-Sep-25 22:27N 29°45' W 095°11'0 0.0
2017-Sep-25 22:00N 29°45' W 095°11'0 0.0
2017-Sep-25 21:15N 29°45' W 095°11'0 0.0
2017-Sep-25 20:51N 29°45' W 095°11'0 0.0
2017-Sep-25 20:27N 29°45' W 095°11'0 0.0
2017-Sep-25 20:00N 29°45' W 095°11'0 0.0
2017-Sep-25 19:24N 29°45' W 095°11'0 0.0
2017-Sep-25 18:51N 29°45' W 095°11'0 0.0
2017-Sep-25 18:30N 29°45' W 095°11'0 0.0
2017-Sep-25 18:00N 29°45' W 095°11'0 0.0
2017-Sep-25 17:30N 29°45' W 095°11'0 0.0
2017-Sep-25 17:00N 29°45' W 095°11'0 0.0
2017-Sep-25 16:30N 29°45' W 095°11'0 0.0
2017-Sep-25 15:57N 29°45' W 095°11'0 0.0
2017-Sep-25 15:30N 29°45' W 095°11'0 0.0
2017-Sep-25 15:00N 29°45' W 095°11'0 0.0
2017-Sep-25 14:30N 29°45' W 095°11'0 0.0
2017-Sep-25 13:54N 29°45' W 095°11'0 0.0
2017-Sep-25 13:30N 29°45' W 095°11'0 0.0
2017-Sep-25 13:00N 29°45' W 095°11'0 0.0
2017-Sep-25 12:30N 29°45' W 095°11'0 0.0
2017-Sep-25 12:00N 29°45' W 095°11'0 0.0
2017-Sep-25 11:30N 29°45' W 095°11'0 0.0
2017-Sep-25 10:48N 29°45' W 095°11'0 0.0
2017-Sep-25 10:18N 29°45' W 095°11'0 0.0
2017-Sep-25 10:00N 29°45' W 095°11'0 0.0
2017-Sep-25 09:30N 29°45' W 095°11'0 0.0
2017-Sep-25 09:00N 29°45' W 095°11'0 0.0
2017-Sep-25 08:30N 29°45' W 095°11'0 0.0
2017-Sep-25 08:00N 29°45' W 095°11'0 0.0
2017-Sep-25 07:30N 29°45' W 095°11'0 0.0
2017-Sep-25 07:00N 29°45' W 095°11'0 0.0
2017-Sep-25 06:30N 29°45' W 095°11'0 0.0
2017-Sep-25 06:00N 29°45' W 095°11'0 0.0
2017-Sep-25 05:30N 29°45' W 095°11'0 0.0
2017-Sep-25 04:57N 29°45' W 095°11'0 0.0
2017-Sep-25 04:30N 29°45' W 095°11'0 0.0
2017-Sep-25 03:54N 29°45' W 095°11'0 0.0
2017-Sep-25 03:30N 29°45' W 095°11'0 0.0
2017-Sep-25 03:00N 29°45' W 095°11'0 0.0
2017-Sep-25 02:30N 29°45' W 095°11'0 0.0
2017-Sep-25 02:00N 29°45' W 095°11'0 0.0
2017-Sep-25 01:30N 29°45' W 095°11'0 0.0
2017-Sep-25 00:57N 29°45' W 095°11'0 0.0
2017-Sep-25 00:30N 29°45' W 095°11'0 0.0
2017-Sep-25 00:00N 29°45' W 095°11'0 0.0
2017-Sep-24 23:24N 29°45' W 095°11'0 0.0
2017-Sep-24 23:00N 29°45' W 095°11'0 0.0
2017-Sep-24 22:30N 29°45' W 095°11'0 0.0
2017-Sep-24 22:00N 29°45' W 095°11'0 0.0
2017-Sep-24 21:21N 29°45' W 095°11'0 0.0
2017-Sep-24 21:00N 29°45' W 095°11'0 0.0
2017-Sep-24 20:30N 29°45' W 095°11'0 0.0
2017-Sep-24 19:54N 29°45' W 095°11'0 0.0
2017-Sep-24 19:30N 29°45' W 095°11'0 0.0
2017-Sep-24 19:00N 29°45' W 095°11'0 0.0
2017-Sep-24 18:30N 29°45' W 095°11'0 0.0
2017-Sep-24 17:57N 29°45' W 095°11'0 0.0
2017-Sep-24 17:30N 29°45' W 095°11'0 0.0
2017-Sep-24 16:57N 29°45' W 095°11'0 0.0
2017-Sep-24 16:27N 29°45' W 095°11'0 0.0
2017-Sep-24 15:54N 29°45' W 095°11'0 0.0
2017-Sep-24 15:30N 29°45' W 095°11'0 0.0
2017-Sep-24 15:00N 29°45' W 095°11'0 0.0
2017-Sep-24 14:27N 29°45' W 095°11'0 0.0
2017-Sep-24 13:54N 29°45' W 095°11'0 0.0
2017-Sep-24 13:30N 29°45' W 095°11'0 0.0
2017-Sep-24 13:00N 29°45' W 095°11'0 0.0
2017-Sep-24 12:30N 29°45' W 095°11'0 0.0
2017-Sep-24 12:00N 29°45' W 095°11'0 0.0
2017-Sep-24 11:30N 29°45' W 095°11'0 0.0
2017-Sep-24 10:57N 29°45' W 095°11'0 0.0
2017-Sep-24 10:30N 29°45' W 095°11'0 0.0
2017-Sep-24 09:57N 29°45' W 095°11'0 0.0
2017-Sep-24 09:30N 29°45' W 095°11'0 0.0
2017-Sep-24 09:00N 29°45' W 095°11'0 0.0
2017-Sep-24 08:30N 29°45' W 095°11'0 0.0
2017-Sep-24 08:00N 29°45' W 095°11'0 0.0
2017-Sep-24 07:27N 29°45' W 095°11'0 0.0
2017-Sep-24 07:00N 29°45' W 095°11'0 0.0
2017-Sep-24 06:30N 29°45' W 095°11'0 0.0
2017-Sep-24 06:00N 29°45' W 095°11'0 0.0
2017-Sep-24 05:30N 29°45' W 095°11'0 0.0
2017-Sep-24 04:48N 29°45' W 095°11'0 0.0
2017-Sep-24 04:30N 29°45' W 095°11'0 0.0
2017-Sep-24 04:00N 29°45' W 095°11'0 0.0
2017-Sep-24 03:27N 29°45' W 095°11'0 0.0
2017-Sep-24 03:00N 29°45' W 095°11'0 0.0
2017-Sep-24 02:30N 29°45' W 095°11'0 0.0
2017-Sep-24 02:00N 29°45' W 095°11'0 0.0
2017-Sep-24 01:27N 29°45' W 095°11'0 0.0
2017-Sep-24 01:00N 29°45' W 095°11'0 0.0
2017-Sep-24 00:27N 29°45' W 095°11'0 0.0
2017-Sep-23 23:57N 29°45' W 095°11'0 0.0
2017-Sep-23 23:30N 29°45' W 095°11'0 0.0
2017-Sep-23 23:00N 29°45' W 095°11'0 0.0
2017-Sep-23 22:27N 29°45' W 095°11'0 0.0
2017-Sep-23 22:00N 29°45' W 095°11'0 0.0
2017-Sep-23 21:30N 29°45' W 095°11'0 0.0
2017-Sep-23 20:57N 29°45' W 095°11'0 0.0
2017-Sep-23 20:27N 29°45' W 095°11'0 0.0
2017-Sep-23 20:00N 29°45' W 095°11'0 0.0
2017-Sep-22 01:54N 29°45' W 095°11'0 0.0
2017-Sep-22 01:30N 29°45' W 095°11'0 0.0
2017-Sep-22 01:00N 29°45' W 095°11'0 0.0
2017-Sep-22 00:24N 29°45' W 095°11'0 0.0
2017-Sep-22 00:00N 29°45' W 095°11'0 0.0
2017-Sep-21 23:27N 29°45' W 095°11'0 0.0
2017-Sep-21 23:00N 29°45' W 095°11'0 0.0
2017-Sep-21 22:30N 29°45' W 095°11'0 0.0
2017-Sep-21 21:48N 29°45' W 095°11'0 0.0
2017-Sep-21 21:12N 29°45' W 095°11'0 0.0
2017-Sep-21 21:00N 29°45' W 095°11'0 0.0
2017-Sep-21 20:30N 29°45' W 095°11'0 0.0
2017-Sep-21 20:00N 29°45' W 095°11'0 0.0
2017-Sep-21 19:30N 29°45' W 095°11'0 0.0
2017-Sep-21 18:51N 29°45' W 095°11'0 0.0
2017-Sep-21 18:24N 29°45' W 095°11'0 0.0
2017-Sep-21 17:42N 29°45' W 095°11'0 0.0
2017-Sep-21 17:27N 29°45' W 095°11'0 0.0
2017-Sep-21 16:57N 29°45' W 095°11'0 0.0
2017-Sep-21 16:30N 29°45' W 095°11'0 0.0
2017-Sep-21 15:21N 29°45' W 095°11'0 0.0
2017-Sep-21 15:00N 29°45' W 095°11'0 0.0
2017-Sep-21 14:06N 29°45' W 095°11'0 0.0
2017-Sep-21 13:57N 29°45' W 095°11'0 0.0
2017-Sep-21 13:30N 29°45' W 095°11'0 0.0
2017-Sep-21 12:57N 29°45' W 095°11'0 0.0
2017-Sep-21 11:42N 29°45' W 095°11'0 0.0
2017-Sep-21 11:27N 29°45' W 095°11'0 0.0
2017-Sep-21 10:00N 29°45' W 095°11'0 0.0
2017-Sep-21 09:30N 29°45' W 095°11'0 0.0
2017-Sep-21 08:24N 29°45' W 095°11'0 0.0
2017-Sep-21 08:00N 29°45' W 095°11'0 0.0
2017-Sep-21 07:30N 29°45' W 095°11'0 0.0
2017-Sep-21 06:42N 29°45' W 095°11'0 0.0
2017-Sep-21 06:18N 29°45' W 095°11'0 0.0
2017-Sep-21 06:00N 29°45' W 095°11'0 0.0
2017-Sep-21 05:30N 29°45' W 095°11'0 0.0
2017-Sep-21 04:57N 29°45' W 095°11'0 0.0
2017-Sep-21 04:27N 29°45' W 095°11'  

Dump ship's entire track history